sensor_id;sensor_type;location;lat;lon;timestamp;temperature;humidity
2647;DHT22;1333;50.958;6.770;2022-07-03T00:02:07;18.40;99.90
2647;DHT22;1333;50.958;6.770;2022-07-03T00:04:32;18.40;99.90
2647;DHT22;1333;50.958;6.770;2022-07-03T00:06:58;18.30;99.90
2647;DHT22;1333;50.958;6.770;2022-07-03T00:09:23;18.30;99.90
2647;DHT22;1333;50.958;6.770;2022-07-03T00:11:49;18.20;99.90
2647;DHT22;1333;50.958;6.770;2022-07-03T00:14:15;18.20;99.90
2647;DHT22;1333;50.958;6.770;2022-07-03T00:16:41;18.20;99.90
2647;DHT22;1333;50.958;6.770;2022-07-03T00:19:06;18.20;99.90
2647;DHT22;1333;50.958;6.770;2022-07-03T00:21:40;18.20;99.90
2647;DHT22;1333;50.958;6.770;2022-07-03T00:24:13;18.10;99.90
2647;DHT22;1333;50.958;6.770;2022-07-03T00:26:42;18.10;99.90
2647;DHT22;1333;50.958;6.770;2022-07-03T00:29:09;18.00;99.90
2647;DHT22;1333;50.958;6.770;2022-07-03T00:31:35;18.00;99.90
2647;DHT22;1333;50.958;6.770;2022-07-03T00:34:01;18.00;99.90
2647;DHT22;1333;50.958;6.770;2022-07-03T00:36:35;18.00;99.90
2647;DHT22;1333;50.958;6.770;2022-07-03T00:39:02;18.00;99.90
2647;DHT22;1333;50.958;6.770;2022-07-03T00:41:30;18.00;99.90
2647;DHT22;1333;50.958;6.770;2022-07-03T00:43:56;18.00;99.90
2647;DHT22;1333;50.958;6.770;2022-07-03T00:46:23;18.00;99.90
2647;DHT22;1333;50.958;6.770;2022-07-03T00:48:51;18.10;99.90
2647;DHT22;1333;50.958;6.770;2022-07-03T00:51:25;18.10;99.90
2647;DHT22;1333;50.958;6.770;2022-07-03T00:53:54;18.20;99.90
2647;DHT22;1333;50.958;6.770;2022-07-03T00:56:26;18.30;99.90
2647;DHT22;1333;50.958;6.770;2022-07-03T00:58:55;18.40;99.90
2647;DHT22;1333;50.958;6.770;2022-07-03T01:01:22;18.40;99.90
2647;DHT22;1333;50.958;6.770;2022-07-03T01:03:57;18.40;99.90
2647;DHT22;1333;50.958;6.770;2022-07-03T01:06:33;18.40;99.90
2647;DHT22;1333;50.958;6.770;2022-07-03T01:09:02;18.30;99.90
2647;DHT22;1333;50.958;6.770;2022-07-03T01:11:38;18.30;99.90
2647;DHT22;1333;50.958;6.770;2022-07-03T01:17:10;18.20;99.90
2647;DHT22;1333;50.958;6.770;2022-07-03T01:19:43;18.10;99.90
2647;DHT22;1333;50.958;6.770;2022-07-03T01:28:02;17.90;99.90
2647;DHT22;1333;50.958;6.770;2022-07-03T01:30:32;17.80;99.90
2647;DHT22;1333;50.958;6.770;2022-07-03T01:33:16;17.80;99.90
2647;DHT22;1333;50.958;6.770;2022-07-03T01:36:02;17.70;99.90
2647;DHT22;1333;50.958;6.770;2022-07-03T01:38:35;17.70;99.90
2647;DHT22;1333;50.958;6.770;2022-07-03T01:41:03;17.60;99.90
2647;DHT22;1333;50.958;6.770;2022-07-03T01:43:32;17.60;99.90
2647;DHT22;1333;50.958;6.770;2022-07-03T01:45:59;17.60;99.90
2647;DHT22;1333;50.958;6.770;2022-07-03T01:48:26;17.60;99.90
2647;DHT22;1333;50.958;6.770;2022-07-03T01:50:52;17.60;99.90
2647;DHT22;1333;50.958;6.770;2022-07-03T01:53:18;17.60;99.90
2647;DHT22;1333;50.958;6.770;2022-07-03T01:55:46;17.60;99.90
2647;DHT22;1333;50.958;6.770;2022-07-03T01:58:13;17.60;99.90
2647;DHT22;1333;50.958;6.770;2022-07-03T02:03:31;17.50;99.90
2647;DHT22;1333;50.958;6.770;2022-07-03T02:06:20;17.40;99.90
2647;DHT22;1333;50.958;6.770;2022-07-03T02:11:27;17.30;99.90
2647;DHT22;1333;50.958;6.770;2022-07-03T02:17:18;17.10;99.90
2647;DHT22;1333;50.958;6.770;2022-07-03T02:19:57;17.10;99.90
2647;DHT22;1333;50.958;6.770;2022-07-03T02:22:31;17.00;99.90
2647;DHT22;1333;50.958;6.770;2022-07-03T02:25:06;16.90;99.90
2647;DHT22;1333;50.958;6.770;2022-07-03T02:27:42;16.90;99.90
2647;DHT22;1333;50.958;6.770;2022-07-03T02:30:08;16.80;99.90
2647;DHT22;1333;50.958;6.770;2022-07-03T02:32:55;16.80;99.90
2647;DHT22;1333;50.958;6.770;2022-07-03T02:35:32;16.70;99.90
2647;DHT22;1333;50.958;6.770;2022-07-03T02:38:16;16.70;99.90
2647;DHT22;1333;50.958;6.770;2022-07-03T02:41:07;16.60;99.90
2647;DHT22;1333;50.958;6.770;2022-07-03T02:43:41;16.60;99.90
2647;DHT22;1333;50.958;6.770;2022-07-03T02:46:18;16.60;99.90
2647;DHT22;1333;50.958;6.770;2022-07-03T02:54:35;16.40;99.90
2647;DHT22;1333;50.958;6.770;2022-07-03T02:57:08;16.40;99.90
2647;DHT22;1333;50.958;6.770;2022-07-03T02:59:54;16.40;99.90
2647;DHT22;1333;50.958;6.770;2022-07-03T03:02:32;16.30;99.90
2647;DHT22;1333;50.958;6.770;2022-07-03T03:05:06;16.30;99.90
2647;DHT22;1333;50.958;6.770;2022-07-03T03:07:41;16.20;99.90
2647;DHT22;1333;50.958;6.770;2022-07-03T03:10:12;16.20;99.90
2647;DHT22;1333;50.958;6.770;2022-07-03T03:12:41;16.20;99.90
2647;DHT22;1333;50.958;6.770;2022-07-03T03:15:12;16.20;99.90
2647;DHT22;1333;50.958;6.770;2022-07-03T03:17:49;16.20;99.90
2647;DHT22;1333;50.958;6.770;2022-07-03T03:20:16;16.20;99.90
2647;DHT22;1333;50.958;6.770;2022-07-03T03:25:26;16.20;99.90
2647;DHT22;1333;50.958;6.770;2022-07-03T03:27:52;16.30;99.90
2647;DHT22;1333;50.958;6.770;2022-07-03T03:30:17;16.30;99.90
2647;DHT22;1333;50.958;6.770;2022-07-03T03:32:43;16.30;99.90
2647;DHT22;1333;50.958;6.770;2022-07-03T03:35:09;16.20;99.90
2647;DHT22;1333;50.958;6.770;2022-07-03T03:37:34;16.20;99.90
2647;DHT22;1333;50.958;6.770;2022-07-03T03:40:02;16.20;99.90
2647;DHT22;1333;50.958;6.770;2022-07-03T03:42:28;16.10;99.90
2647;DHT22;1333;50.958;6.770;2022-07-03T03:44:53;16.10;99.90
2647;DHT22;1333;50.958;6.770;2022-07-03T03:47:19;16.10;99.90
2647;DHT22;1333;50.958;6.770;2022-07-03T03:49:45;16.10;99.90
2647;DHT22;1333;50.958;6.770;2022-07-03T03:52:10;16.10;99.90
2647;DHT22;1333;50.958;6.770;2022-07-03T03:54:36;16.10;99.90
2647;DHT22;1333;50.958;6.770;2022-07-03T03:57:19;16.20;99.90
2647;DHT22;1333;50.958;6.770;2022-07-03T03:59:45;16.20;99.90
2647;DHT22;1333;50.958;6.770;2022-07-03T04:02:11;16.20;99.90
2647;DHT22;1333;50.958;6.770;2022-07-03T04:04:38;16.30;99.90
2647;DHT22;1333;50.958;6.770;2022-07-03T04:07:04;16.40;99.90
2647;DHT22;1333;50.958;6.770;2022-07-03T04:09:29;16.40;99.90
2647;DHT22;1333;50.958;6.770;2022-07-03T04:11:55;16.50;99.90
2647;DHT22;1333;50.958;6.770;2022-07-03T04:14:21;16.60;99.90
2647;DHT22;1333;50.958;6.770;2022-07-03T04:16:46;16.70;99.90
2647;DHT22;1333;50.958;6.770;2022-07-03T04:19:12;16.70;99.90
2647;DHT22;1333;50.958;6.770;2022-07-03T04:21:37;16.80;99.90
2647;DHT22;1333;50.958;6.770;2022-07-03T04:24:03;16.90;99.90
2647;DHT22;1333;50.958;6.770;2022-07-03T04:26:29;16.90;99.90
2647;DHT22;1333;50.958;6.770;2022-07-03T04:28:54;17.00;99.90
2647;DHT22;1333;50.958;6.770;2022-07-03T04:31:20;17.10;99.90
2647;DHT22;1333;50.958;6.770;2022-07-03T04:33:45;17.20;99.90
2647;DHT22;1333;50.958;6.770;2022-07-03T04:36:11;17.20;99.90
2647;DHT22;1333;50.958;6.770;2022-07-03T04:38:36;17.30;99.90
2647;DHT22;1333;50.958;6.770;2022-07-03T04:41:02;17.30;99.90
2647;DHT22;1333;50.958;6.770;2022-07-03T04:43:27;17.40;99.90
2647;DHT22;1333;50.958;6.770;2022-07-03T04:45:53;17.40;99.90
2647;DHT22;1333;50.958;6.770;2022-07-03T04:48:18;17.40;99.90
2647;DHT22;1333;50.958;6.770;2022-07-03T04:50:44;17.40;99.90
2647;DHT22;1333;50.958;6.770;2022-07-03T04:53:09;17.40;99.90
2647;DHT22;1333;50.958;6.770;2022-07-03T04:55:35;17.40;99.90
2647;DHT22;1333;50.958;6.770;2022-07-03T04:58:00;17.40;99.90
2647;DHT22;1333;50.958;6.770;2022-07-03T05:00:26;17.50;99.90
2647;DHT22;1333;50.958;6.770;2022-07-03T05:02:52;17.50;99.90
2647;DHT22;1333;50.958;6.770;2022-07-03T05:05:17;17.60;99.90
2647;DHT22;1333;50.958;6.770;2022-07-03T05:07:43;17.60;99.90
2647;DHT22;1333;50.958;6.770;2022-07-03T05:10:09;17.70;99.90
2647;DHT22;1333;50.958;6.770;2022-07-03T05:12:35;17.80;99.90
2647;DHT22;1333;50.958;6.770;2022-07-03T05:15:01;17.90;99.90
2647;DHT22;1333;50.958;6.770;2022-07-03T05:17:26;17.90;99.90
2647;DHT22;1333;50.958;6.770;2022-07-03T05:19:52;18.00;99.90
2647;DHT22;1333;50.958;6.770;2022-07-03T05:22:38;18.10;99.90
2647;DHT22;1333;50.958;6.770;2022-07-03T05:25:04;18.20;99.90
2647;DHT22;1333;50.958;6.770;2022-07-03T05:27:30;18.30;99.90
2647;DHT22;1333;50.958;6.770;2022-07-03T05:29:55;18.40;99.90
2647;DHT22;1333;50.958;6.770;2022-07-03T05:32:21;18.50;99.90
2647;DHT22;1333;50.958;6.770;2022-07-03T05:34:46;18.70;99.90
2647;DHT22;1333;50.958;6.770;2022-07-03T05:37:12;18.80;99.90
2647;DHT22;1333;50.958;6.770;2022-07-03T05:39:37;19.00;99.90
2647;DHT22;1333;50.958;6.770;2022-07-03T05:42:04;19.20;99.90
2647;DHT22;1333;50.958;6.770;2022-07-03T05:44:29;19.40;99.90
2647;DHT22;1333;50.958;6.770;2022-07-03T05:46:55;19.80;99.90
2647;DHT22;1333;50.958;6.770;2022-07-03T05:49:21;20.20;99.90
2647;DHT22;1333;50.958;6.770;2022-07-03T05:51:46;20.80;99.90
2647;DHT22;1333;50.958;6.770;2022-07-03T05:54:12;21.30;99.90
2647;DHT22;1333;50.958;6.770;2022-07-03T05:56:37;22.10;99.90
2647;DHT22;1333;50.958;6.770;2022-07-03T05:59:03;22.60;99.90
2647;DHT22;1333;50.958;6.770;2022-07-03T06:01:28;23.10;99.90
2647;DHT22;1333;50.958;6.770;2022-07-03T06:03:54;23.60;99.90
2647;DHT22;1333;50.958;6.770;2022-07-03T06:06:20;24.00;99.90
2647;DHT22;1333;50.958;6.770;2022-07-03T06:08:45;24.40;99.90
2647;DHT22;1333;50.958;6.770;2022-07-03T06:11:11;25.00;99.90
2647;DHT22;1333;50.958;6.770;2022-07-03T06:13:36;25.70;99.90
2647;DHT22;1333;50.958;6.770;2022-07-03T06:16:02;26.30;99.90
2647;DHT22;1333;50.958;6.770;2022-07-03T06:18:27;27.00;99.90
2647;DHT22;1333;50.958;6.770;2022-07-03T06:20:53;27.70;99.90
2647;DHT22;1333;50.958;6.770;2022-07-03T06:23:18;28.50;98.30
2647;DHT22;1333;50.958;6.770;2022-07-03T06:25:44;29.20;94.20
2647;DHT22;1333;50.958;6.770;2022-07-03T06:28:10;30.00;88.90
2647;DHT22;1333;50.958;6.770;2022-07-03T06:30:35;30.60;82.00
2647;DHT22;1333;50.958;6.770;2022-07-03T06:33:01;31.30;75.80
2647;DHT22;1333;50.958;6.770;2022-07-03T06:35:26;32.00;69.70
2647;DHT22;1333;50.958;6.770;2022-07-03T06:37:52;32.70;63.00
2647;DHT22;1333;50.958;6.770;2022-07-03T06:40:17;33.20;58.70
2647;DHT22;1333;50.958;6.770;2022-07-03T06:42:43;33.80;56.50
2647;DHT22;1333;50.958;6.770;2022-07-03T06:45:08;34.50;54.10
2647;DHT22;1333;50.958;6.770;2022-07-03T06:47:38;35.00;51.70
2647;DHT22;1333;50.958;6.770;2022-07-03T06:50:05;35.50;50.10
2647;DHT22;1333;50.958;6.770;2022-07-03T06:52:30;36.00;48.20
2647;DHT22;1333;50.958;6.770;2022-07-03T06:54:56;36.50;47.10
2647;DHT22;1333;50.958;6.770;2022-07-03T06:57:21;37.00;46.30
2647;DHT22;1333;50.958;6.770;2022-07-03T06:59:47;37.40;44.10
2647;DHT22;1333;50.958;6.770;2022-07-03T07:02:13;37.90;43.50
2647;DHT22;1333;50.958;6.770;2022-07-03T07:04:39;38.40;42.80
2647;DHT22;1333;50.958;6.770;2022-07-03T07:07:05;38.90;41.70
2647;DHT22;1333;50.958;6.770;2022-07-03T07:09:30;39.30;40.80
2647;DHT22;1333;50.958;6.770;2022-07-03T07:11:56;39.70;39.70
2647;DHT22;1333;50.958;6.770;2022-07-03T07:14:21;40.00;38.80
2647;DHT22;1333;50.958;6.770;2022-07-03T07:16:47;40.50;38.10
2647;DHT22;1333;50.958;6.770;2022-07-03T07:19:13;40.80;37.10
2647;DHT22;1333;50.958;6.770;2022-07-03T07:21:38;41.10;36.40
2647;DHT22;1333;50.958;6.770;2022-07-03T07:24:04;41.60;36.00
2647;DHT22;1333;50.958;6.770;2022-07-03T07:26:30;42.10;35.30
2647;DHT22;1333;50.958;6.770;2022-07-03T07:28:55;42.50;34.40
2647;DHT22;1333;50.958;6.770;2022-07-03T07:31:21;42.90;33.60
2647;DHT22;1333;50.958;6.770;2022-07-03T07:33:46;43.20;33.50
2647;DHT22;1333;50.958;6.770;2022-07-03T07:36:12;43.60;32.10
2647;DHT22;1333;50.958;6.770;2022-07-03T07:38:37;44.00;32.00
2647;DHT22;1333;50.958;6.770;2022-07-03T07:41:03;44.40;31.50
2647;DHT22;1333;50.958;6.770;2022-07-03T07:43:28;44.80;30.80
2647;DHT22;1333;50.958;6.770;2022-07-03T07:45:54;45.20;30.20
2647;DHT22;1333;50.958;6.770;2022-07-03T07:48:19;45.70;30.10
2647;DHT22;1333;50.958;6.770;2022-07-03T07:50:45;46.00;29.40
2647;DHT22;1333;50.958;6.770;2022-07-03T07:53:11;46.40;29.40
2647;DHT22;1333;50.958;6.770;2022-07-03T07:55:36;46.70;28.80
2647;DHT22;1333;50.958;6.770;2022-07-03T07:58:02;47.00;28.30
2647;DHT22;1333;50.958;6.770;2022-07-03T08:00:27;47.30;28.40
2647;DHT22;1333;50.958;6.770;2022-07-03T08:02:53;47.60;27.90
2647;DHT22;1333;50.958;6.770;2022-07-03T08:05:37;47.80;27.70
2647;DHT22;1333;50.958;6.770;2022-07-03T08:08:14;48.20;27.80
2647;DHT22;1333;50.958;6.770;2022-07-03T08:10:45;48.60;27.40
2647;DHT22;1333;50.958;6.770;2022-07-03T08:13:12;49.00;27.10
2647;DHT22;1333;50.958;6.770;2022-07-03T08:15:39;49.40;26.60
2647;DHT22;1333;50.958;6.770;2022-07-03T08:18:05;49.90;26.20
2647;DHT22;1333;50.958;6.770;2022-07-03T08:20:31;50.20;25.90
2647;DHT22;1333;50.958;6.770;2022-07-03T08:22:57;50.60;25.30
2647;DHT22;1333;50.958;6.770;2022-07-03T08:25:24;51.00;25.00
2647;DHT22;1333;50.958;6.770;2022-07-03T08:27:49;51.30;24.90
2647;DHT22;1333;50.958;6.770;2022-07-03T08:30:15;51.60;24.70
2647;DHT22;1333;50.958;6.770;2022-07-03T08:32:44;51.90;24.90
2647;DHT22;1333;50.958;6.770;2022-07-03T08:35:10;52.20;24.50
2647;DHT22;1333;50.958;6.770;2022-07-03T08:37:35;52.60;24.10
2647;DHT22;1333;50.958;6.770;2022-07-03T08:40:02;53.00;23.60
2647;DHT22;1333;50.958;6.770;2022-07-03T08:42:30;53.30;23.70
2647;DHT22;1333;50.958;6.770;2022-07-03T08:44:56;53.60;23.30
2647;DHT22;1333;50.958;6.770;2022-07-03T08:47:24;53.90;23.40
2647;DHT22;1333;50.958;6.770;2022-07-03T08:49:52;54.20;23.30
2647;DHT22;1333;50.958;6.770;2022-07-03T08:52:18;54.60;23.10
2647;DHT22;1333;50.958;6.770;2022-07-03T08:54:45;55.00;22.90
2647;DHT22;1333;50.958;6.770;2022-07-03T08:57:11;55.10;22.80
2647;DHT22;1333;50.958;6.770;2022-07-03T08:59:38;55.40;22.40
2647;DHT22;1333;50.958;6.770;2022-07-03T09:02:04;55.60;22.00
2647;DHT22;1333;50.958;6.770;2022-07-03T09:04:33;55.80;22.30
2647;DHT22;1333;50.958;6.770;2022-07-03T09:06:59;55.90;22.10
2647;DHT22;1333;50.958;6.770;2022-07-03T09:09:26;56.10;21.90
2647;DHT22;1333;50.958;6.770;2022-07-03T09:11:52;55.70;21.80
2647;DHT22;1333;50.958;6.770;2022-07-03T09:14:18;55.50;22.20
2647;DHT22;1333;50.958;6.770;2022-07-03T09:16:43;55.60;22.20
2647;DHT22;1333;50.958;6.770;2022-07-03T09:19:09;56.00;22.00
2647;DHT22;1333;50.958;6.770;2022-07-03T09:21:40;56.30;22.00
2647;DHT22;1333;50.958;6.770;2022-07-03T09:24:10;56.60;22.10
2647;DHT22;1333;50.958;6.770;2022-07-03T09:26:36;57.00;21.80
2647;DHT22;1333;50.958;6.770;2022-07-03T09:29:14;57.30;21.90
2647;DHT22;1333;50.958;6.770;2022-07-03T09:31:40;57.70;21.80
2647;DHT22;1333;50.958;6.770;2022-07-03T09:34:07;57.80;21.00
2647;DHT22;1333;50.958;6.770;2022-07-03T09:36:46;58.00;21.20
2647;DHT22;1333;50.958;6.770;2022-07-03T09:39:26;58.10;21.40
2647;DHT22;1333;50.958;6.770;2022-07-03T09:41:59;58.30;21.40
2647;DHT22;1333;50.958;6.770;2022-07-03T09:44:29;58.40;21.10
2647;DHT22;1333;50.958;6.770;2022-07-03T09:52:31;58.90;21.00
2647;DHT22;1333;50.958;6.770;2022-07-03T09:57:31;59.10;21.20
2647;DHT22;1333;50.958;6.770;2022-07-03T10:00:08;59.30;20.70
2647;DHT22;1333;50.958;6.770;2022-07-03T10:02:35;59.40;20.70
2647;DHT22;1333;50.958;6.770;2022-07-03T10:05:20;59.70;20.80
2647;DHT22;1333;50.958;6.770;2022-07-03T10:08:03;59.80;20.80
2647;DHT22;1333;50.958;6.770;2022-07-03T10:10:34;59.90;20.40
2647;DHT22;1333;50.958;6.770;2022-07-03T10:13:00;59.90;20.30
2647;DHT22;1333;50.958;6.770;2022-07-03T10:15:27;59.90;20.40
2647;DHT22;1333;50.958;6.770;2022-07-03T10:17:55;60.00;20.40
2647;DHT22;1333;50.958;6.770;2022-07-03T10:20:35;60.10;20.60
2647;DHT22;1333;50.958;6.770;2022-07-03T10:23:02;60.20;20.90
2647;DHT22;1333;50.958;6.770;2022-07-03T10:25:29;60.30;20.10
2647;DHT22;1333;50.958;6.770;2022-07-03T10:27:55;60.30;20.20
2647;DHT22;1333;50.958;6.770;2022-07-03T10:30:23;60.50;20.40
2647;DHT22;1333;50.958;6.770;2022-07-03T10:32:50;60.50;20.50
2647;DHT22;1333;50.958;6.770;2022-07-03T10:35:20;60.60;20.10
2647;DHT22;1333;50.958;6.770;2022-07-03T10:37:57;60.50;19.80
2647;DHT22;1333;50.958;6.770;2022-07-03T10:43:18;60.30;19.70
2647;DHT22;1333;50.958;6.770;2022-07-03T10:46:09;60.00;20.20
2647;DHT22;1333;50.958;6.770;2022-07-03T10:51:20;60.00;20.10
2647;DHT22;1333;50.958;6.770;2022-07-03T10:53:47;60.00;20.30
2647;DHT22;1333;50.958;6.770;2022-07-03T10:56:14;60.00;20.10
2647;DHT22;1333;50.958;6.770;2022-07-03T10:58:56;60.10;20.20
2647;DHT22;1333;50.958;6.770;2022-07-03T11:01:31;60.20;20.00
2647;DHT22;1333;50.958;6.770;2022-07-03T11:04:00;60.20;19.90
2647;DHT22;1333;50.958;6.770;2022-07-03T11:09:12;60.50;20.10
2647;DHT22;1333;50.958;6.770;2022-07-03T11:11:46;60.60;19.90
2647;DHT22;1333;50.958;6.770;2022-07-03T11:14:28;60.60;19.80
2647;DHT22;1333;50.958;6.770;2022-07-03T11:17:16;60.70;20.00
2647;DHT22;1333;50.958;6.770;2022-07-03T11:19:42;60.70;20.20
2647;DHT22;1333;50.958;6.770;2022-07-03T11:22:14;60.70;19.90
2647;DHT22;1333;50.958;6.770;2022-07-03T11:24:44;60.70;20.20
2647;DHT22;1333;50.958;6.770;2022-07-03T11:27:18;60.80;19.70
2647;DHT22;1333;50.958;6.770;2022-07-03T11:29:49;60.70;19.90
2647;DHT22;1333;50.958;6.770;2022-07-03T11:32:47;60.70;19.40
2647;DHT22;1333;50.958;6.770;2022-07-03T11:38:10;60.80;19.50
2647;DHT22;1333;50.958;6.770;2022-07-03T11:40:36;60.80;19.50
2647;DHT22;1333;50.958;6.770;2022-07-03T11:43:06;60.80;19.50
2647;DHT22;1333;50.958;6.770;2022-07-03T11:45:31;60.70;19.50
2647;DHT22;1333;50.958;6.770;2022-07-03T11:47:57;60.60;19.10
2647;DHT22;1333;50.958;6.770;2022-07-03T11:50:43;60.60;19.50
2647;DHT22;1333;50.958;6.770;2022-07-03T11:56:00;60.60;19.80
2647;DHT22;1333;50.958;6.770;2022-07-03T11:58:46;60.60;19.90
2647;DHT22;1333;50.958;6.770;2022-07-03T12:01:29;60.60;19.30
2647;DHT22;1333;50.958;6.770;2022-07-03T12:06:48;60.60;19.50
2647;DHT22;1333;50.958;6.770;2022-07-03T12:09:25;60.60;19.60
2647;DHT22;1333;50.958;6.770;2022-07-03T12:12:06;60.60;19.30
2647;DHT22;1333;50.958;6.770;2022-07-03T12:17:00;59.80;19.30
2647;DHT22;1333;50.958;6.770;2022-07-03T12:19:25;59.80;19.70
2647;DHT22;1333;50.958;6.770;2022-07-03T12:21:51;59.90;19.70
2647;DHT22;1333;50.958;6.770;2022-07-03T12:24:17;59.90;19.40
2647;DHT22;1333;50.958;6.770;2022-07-03T12:26:42;58.40;19.40
2647;DHT22;1333;50.958;6.770;2022-07-03T12:29:09;56.90;20.00
2647;DHT22;1333;50.958;6.770;2022-07-03T12:31:41;56.20;20.40
2647;DHT22;1333;50.958;6.770;2022-07-03T12:34:10;55.80;20.30
2647;DHT22;1333;50.958;6.770;2022-07-03T12:36:36;54.60;20.10
2647;DHT22;1333;50.958;6.770;2022-07-03T12:39:02;53.00;20.90
2647;DHT22;1333;50.958;6.770;2022-07-03T12:41:28;51.30;21.40
2647;DHT22;1333;50.958;6.770;2022-07-03T12:43:54;49.90;22.20
2647;DHT22;1333;50.958;6.770;2022-07-03T12:46:24;48.90;22.70
2647;DHT22;1333;50.958;6.770;2022-07-03T12:48:51;49.10;23.50
2647;DHT22;1333;50.958;6.770;2022-07-03T12:54:05;51.30;23.00
2647;DHT22;1333;50.958;6.770;2022-07-03T12:56:31;52.30;22.30
2647;DHT22;1333;50.958;6.770;2022-07-03T12:58:56;52.90;21.90
2647;DHT22;1333;50.958;6.770;2022-07-03T13:01:40;53.80;22.60
2647;DHT22;1333;50.958;6.770;2022-07-03T13:04:07;54.70;21.90
2647;DHT22;1333;50.958;6.770;2022-07-03T13:06:40;55.20;21.40
2647;DHT22;1333;50.958;6.770;2022-07-03T13:09:07;55.70;21.00
2647;DHT22;1333;50.958;6.770;2022-07-03T13:11:37;56.00;20.80
2647;DHT22;1333;50.958;6.770;2022-07-03T13:14:14;56.20;20.90
2647;DHT22;1333;50.958;6.770;2022-07-03T13:19:08;53.80;20.30
2647;DHT22;1333;50.958;6.770;2022-07-03T13:21:34;51.90;21.10
2647;DHT22;1333;50.958;6.770;2022-07-03T13:24:00;50.60;22.00
2647;DHT22;1333;50.958;6.770;2022-07-03T13:26:26;49.90;22.80
2647;DHT22;1333;50.958;6.770;2022-07-03T13:28:51;49.80;22.50
2647;DHT22;1333;50.958;6.770;2022-07-03T13:31:17;49.60;23.20
2647;DHT22;1333;50.958;6.770;2022-07-03T13:33:43;49.90;23.50
2647;DHT22;1333;50.958;6.770;2022-07-03T13:36:08;50.00;23.80
2647;DHT22;1333;50.958;6.770;2022-07-03T13:38:34;49.70;24.30
2647;DHT22;1333;50.958;6.770;2022-07-03T13:40:59;48.90;23.90
2647;DHT22;1333;50.958;6.770;2022-07-03T13:43:25;47.80;24.10
2647;DHT22;1333;50.958;6.770;2022-07-03T13:45:50;46.50;24.40
2647;DHT22;1333;50.958;6.770;2022-07-03T13:48:16;45.40;25.50
2647;DHT22;1333;50.958;6.770;2022-07-03T13:50:42;44.30;26.00
2647;DHT22;1333;50.958;6.770;2022-07-03T13:53:08;43.20;26.50
2647;DHT22;1333;50.958;6.770;2022-07-03T13:55:34;42.20;27.00
2647;DHT22;1333;50.958;6.770;2022-07-03T13:57:59;41.20;27.40
2647;DHT22;1333;50.958;6.770;2022-07-03T14:00:29;40.40;27.80
2647;DHT22;1333;50.958;6.770;2022-07-03T14:02:55;39.60;29.00
2647;DHT22;1333;50.958;6.770;2022-07-03T14:05:21;38.90;29.60
2647;DHT22;1333;50.958;6.770;2022-07-03T14:07:46;38.20;29.70
2647;DHT22;1333;50.958;6.770;2022-07-03T14:10:14;37.30;30.20
2647;DHT22;1333;50.958;6.770;2022-07-03T14:12:39;36.50;30.80
2647;DHT22;1333;50.958;6.770;2022-07-03T14:15:06;35.90;31.80
2647;DHT22;1333;50.958;6.770;2022-07-03T14:17:31;35.20;32.90
2647;DHT22;1333;50.958;6.770;2022-07-03T14:19:57;34.60;33.70
2647;DHT22;1333;50.958;6.770;2022-07-03T14:22:23;34.20;34.40
2647;DHT22;1333;50.958;6.770;2022-07-03T14:24:48;33.70;34.90
2647;DHT22;1333;50.958;6.770;2022-07-03T14:27:14;33.50;35.80
2647;DHT22;1333;50.958;6.770;2022-07-03T14:29:58;33.20;36.00
2647;DHT22;1333;50.958;6.770;2022-07-03T14:32:42;32.90;37.30
2647;DHT22;1333;50.958;6.770;2022-07-03T14:35:08;32.60;38.00
2647;DHT22;1333;50.958;6.770;2022-07-03T14:37:33;32.30;37.70
2647;DHT22;1333;50.958;6.770;2022-07-03T14:39:59;32.00;37.90
2647;DHT22;1333;50.958;6.770;2022-07-03T14:42:24;31.70;38.40
2647;DHT22;1333;50.958;6.770;2022-07-03T14:44:50;31.50;38.90
2647;DHT22;1333;50.958;6.770;2022-07-03T14:47:16;31.30;39.40
2647;DHT22;1333;50.958;6.770;2022-07-03T14:49:43;31.20;40.30
2647;DHT22;1333;50.958;6.770;2022-07-03T14:52:09;31.30;40.60
2647;DHT22;1333;50.958;6.770;2022-07-03T14:54:35;31.30;40.40
2647;DHT22;1333;50.958;6.770;2022-07-03T14:57:01;31.40;40.70
2647;DHT22;1333;50.958;6.770;2022-07-03T14:59:50;31.40;40.50
2647;DHT22;1333;50.958;6.770;2022-07-03T15:02:19;31.30;40.10
2647;DHT22;1333;50.958;6.770;2022-07-03T15:05:08;31.20;40.70
2647;DHT22;1333;50.958;6.770;2022-07-03T15:07:39;31.20;42.30
2647;DHT22;1333;50.958;6.770;2022-07-03T15:10:09;31.40;41.90
2647;DHT22;1333;50.958;6.770;2022-07-03T15:12:48;31.40;40.50
2647;DHT22;1333;50.958;6.770;2022-07-03T15:15:15;31.40;40.40
2647;DHT22;1333;50.958;6.770;2022-07-03T15:17:42;31.20;40.60
2647;DHT22;1333;50.958;6.770;2022-07-03T15:20:11;30.90;40.40
2647;DHT22;1333;50.958;6.770;2022-07-03T15:22:42;30.60;40.80
2647;DHT22;1333;50.958;6.770;2022-07-03T15:25:10;30.60;41.20
2647;DHT22;1333;50.958;6.770;2022-07-03T15:27:36;30.40;41.50
2647;DHT22;1333;50.958;6.770;2022-07-03T15:30:04;30.30;41.60
2647;DHT22;1333;50.958;6.770;2022-07-03T15:32:30;30.10;41.40
2647;DHT22;1333;50.958;6.770;2022-07-03T15:34:55;29.90;41.70
2647;DHT22;1333;50.958;6.770;2022-07-03T15:40:25;29.50;42.60
2647;DHT22;1333;50.958;6.770;2022-07-03T15:48:42;29.30;43.30
2647;DHT22;1333;50.958;6.770;2022-07-03T15:51:19;29.30;43.20
2647;DHT22;1333;50.958;6.770;2022-07-03T15:53:50;29.20;43.40
2647;DHT22;1333;50.958;6.770;2022-07-03T15:56:19;29.20;43.90
2647;DHT22;1333;50.958;6.770;2022-07-03T15:58:50;29.30;44.40
2647;DHT22;1333;50.958;6.770;2022-07-03T16:01:19;29.40;44.50
2647;DHT22;1333;50.958;6.770;2022-07-03T16:04:09;29.40;43.80
2647;DHT22;1333;50.958;6.770;2022-07-03T16:06:38;29.40;43.70
2647;DHT22;1333;50.958;6.770;2022-07-03T16:09:06;29.30;43.90
2647;DHT22;1333;50.958;6.770;2022-07-03T16:11:34;29.30;43.50
2647;DHT22;1333;50.958;6.770;2022-07-03T16:14:00;29.30;43.40
2647;DHT22;1333;50.958;6.770;2022-07-03T16:16:28;29.30;43.40
2647;DHT22;1333;50.958;6.770;2022-07-03T16:18:55;29.40;43.50
2647;DHT22;1333;50.958;6.770;2022-07-03T16:21:21;29.30;43.30
2647;DHT22;1333;50.958;6.770;2022-07-03T16:23:48;29.20;43.60
2647;DHT22;1333;50.958;6.770;2022-07-03T16:26:15;29.10;43.50
2647;DHT22;1333;50.958;6.770;2022-07-03T16:28:41;28.90;43.70
2647;DHT22;1333;50.958;6.770;2022-07-03T16:31:08;28.70;43.80
2647;DHT22;1333;50.958;6.770;2022-07-03T16:33:39;28.50;44.10
2647;DHT22;1333;50.958;6.770;2022-07-03T16:36:13;28.30;44.80
2647;DHT22;1333;50.958;6.770;2022-07-03T16:38:44;28.10;45.40
2647;DHT22;1333;50.958;6.770;2022-07-03T16:41:10;28.00;45.50
2647;DHT22;1333;50.958;6.770;2022-07-03T16:43:39;27.90;45.40
2647;DHT22;1333;50.958;6.770;2022-07-03T16:46:09;27.80;45.50
2647;DHT22;1333;50.958;6.770;2022-07-03T16:48:38;27.70;45.50
2647;DHT22;1333;50.958;6.770;2022-07-03T16:51:08;27.60;46.00
2647;DHT22;1333;50.958;6.770;2022-07-03T16:53:35;27.50;46.20
2647;DHT22;1333;50.958;6.770;2022-07-03T16:56:02;27.40;46.10
2647;DHT22;1333;50.958;6.770;2022-07-03T16:58:28;27.20;46.30
2647;DHT22;1333;50.958;6.770;2022-07-03T17:00:55;27.10;46.40
2647;DHT22;1333;50.958;6.770;2022-07-03T17:03:27;26.90;46.40
2647;DHT22;1333;50.958;6.770;2022-07-03T17:05:53;26.60;46.40
2647;DHT22;1333;50.958;6.770;2022-07-03T17:08:21;26.40;46.90
2647;DHT22;1333;50.958;6.770;2022-07-03T17:10:47;26.20;47.50
2647;DHT22;1333;50.958;6.770;2022-07-03T17:13:13;26.00;47.40
2647;DHT22;1333;50.958;6.770;2022-07-03T17:15:40;25.90;47.60
2647;DHT22;1333;50.958;6.770;2022-07-03T17:18:07;25.80;47.90
2647;DHT22;1333;50.958;6.770;2022-07-03T17:20:39;25.70;48.10